sensor_id;sensor_type;location;lat;lon;timestamp;temperature;humidity
35127;DHT22;21300;52.006;5.798;2023-06-04T00:00:56;17.00;62.70
35127;DHT22;21300;52.006;5.798;2023-06-04T00:03:23;17.00;62.80
35127;DHT22;21300;52.006;5.798;2023-06-04T00:05:49;17.00;63.00
35127;DHT22;21300;52.006;5.798;2023-06-04T00:08:14;17.00;63.00
35127;DHT22;21300;52.006;5.798;2023-06-04T00:10:40;16.90;63.00
35127;DHT22;21300;52.006;5.798;2023-06-04T00:13:06;16.90;63.10
35127;DHT22;21300;52.006;5.798;2023-06-04T00:15:32;16.90;63.10
35127;DHT22;21300;52.006;5.798;2023-06-04T00:17:57;16.90;63.20
35127;DHT22;21300;52.006;5.798;2023-06-04T00:20:23;16.90;63.20
35127;DHT22;21300;52.006;5.798;2023-06-04T00:22:48;16.80;63.10
35127;DHT22;21300;52.006;5.798;2023-06-04T00:25:14;16.80;63.10
35127;DHT22;21300;52.006;5.798;2023-06-04T00:27:39;16.80;63.40
35127;DHT22;21300;52.006;5.798;2023-06-04T00:30:07;16.80;63.30
35127;DHT22;21300;52.006;5.798;2023-06-04T00:32:32;16.70;63.30
35127;DHT22;21300;52.006;5.798;2023-06-04T00:34:58;16.70;63.40
35127;DHT22;21300;52.006;5.798;2023-06-04T00:37:24;16.70;63.50
35127;DHT22;21300;52.006;5.798;2023-06-04T00:39:50;16.70;63.70
35127;DHT22;21300;52.006;5.798;2023-06-04T00:42:16;16.60;63.70
35127;DHT22;21300;52.006;5.798;2023-06-04T00:44:42;16.60;63.80
35127;DHT22;21300;52.006;5.798;2023-06-04T00:47:14;16.60;63.90
35127;DHT22;21300;52.006;5.798;2023-06-04T00:49:40;16.60;63.90
35127;DHT22;21300;52.006;5.798;2023-06-04T00:52:08;16.50;64.00
35127;DHT22;21300;52.006;5.798;2023-06-04T00:54:34;16.50;63.90
35127;DHT22;21300;52.006;5.798;2023-06-04T00:57:00;16.50;64.00
35127;DHT22;21300;52.006;5.798;2023-06-04T00:59:26;16.50;64.10
35127;DHT22;21300;52.006;5.798;2023-06-04T01:02:00;16.50;64.10
35127;DHT22;21300;52.006;5.798;2023-06-04T01:04:34;16.40;64.20
35127;DHT22;21300;52.006;5.798;2023-06-04T01:07:03;16.40;64.20
35127;DHT22;21300;52.006;5.798;2023-06-04T01:09:30;16.40;64.20
35127;DHT22;21300;52.006;5.798;2023-06-04T01:11:56;16.40;64.30
35127;DHT22;21300;52.006;5.798;2023-06-04T01:14:27;16.30;64.30
35127;DHT22;21300;52.006;5.798;2023-06-04T01:16:57;16.30;64.40
35127;DHT22;21300;52.006;5.798;2023-06-04T01:19:56;16.30;64.40
35127;DHT22;21300;52.006;5.798;2023-06-04T01:22:54;16.30;64.50
35127;DHT22;21300;52.006;5.798;2023-06-04T01:25:33;16.20;64.60
35127;DHT22;21300;52.006;5.798;2023-06-04T01:27:59;16.20;64.60
35127;DHT22;21300;52.006;5.798;2023-06-04T01:30:34;16.20;64.70
35127;DHT22;21300;52.006;5.798;2023-06-04T01:33:01;16.10;64.60
35127;DHT22;21300;52.006;5.798;2023-06-04T01:35:30;16.10;64.70
35127;DHT22;21300;52.006;5.798;2023-06-04T01:37:58;16.10;64.80
35127;DHT22;21300;52.006;5.798;2023-06-04T01:40:24;16.10;64.80
35127;DHT22;21300;52.006;5.798;2023-06-04T01:42:51;16.00;64.80
35127;DHT22;21300;52.006;5.798;2023-06-04T01:45:16;16.00;64.80
35127;DHT22;21300;52.006;5.798;2023-06-04T01:47:42;16.00;64.80
35127;DHT22;21300;52.006;5.798;2023-06-04T01:50:08;16.00;64.90
35127;DHT22;21300;52.006;5.798;2023-06-04T01:52:40;15.90;64.90
35127;DHT22;21300;52.006;5.798;2023-06-04T01:55:07;15.90;65.00
35127;DHT22;21300;52.006;5.798;2023-06-04T01:57:34;15.90;65.40
35127;DHT22;21300;52.006;5.798;2023-06-04T02:00:05;15.90;65.10
35127;DHT22;21300;52.006;5.798;2023-06-04T02:02:33;15.80;65.10
35127;DHT22;21300;52.006;5.798;2023-06-04T02:04:58;15.80;65.10
35127;DHT22;21300;52.006;5.798;2023-06-04T02:07:24;15.80;65.20
35127;DHT22;21300;52.006;5.798;2023-06-04T02:09:51;15.80;65.20
35127;DHT22;21300;52.006;5.798;2023-06-04T02:12:17;15.80;65.30
35127;DHT22;21300;52.006;5.798;2023-06-04T02:14:43;15.70;65.30
35127;DHT22;21300;52.006;5.798;2023-06-04T02:17:11;15.70;65.30
35127;DHT22;21300;52.006;5.798;2023-06-04T02:19:42;15.70;65.30
35127;DHT22;21300;52.006;5.798;2023-06-04T02:22:16;15.70;65.40
35127;DHT22;21300;52.006;5.798;2023-06-04T02:24:41;15.60;65.30
35127;DHT22;21300;52.006;5.798;2023-06-04T02:27:08;15.60;65.40
35127;DHT22;21300;52.006;5.798;2023-06-04T02:29:34;15.60;65.40
35127;DHT22;21300;52.006;5.798;2023-06-04T02:32:01;15.60;65.40
35127;DHT22;21300;52.006;5.798;2023-06-04T02:34:27;15.50;65.40
35127;DHT22;21300;52.006;5.798;2023-06-04T02:36:52;15.50;65.50
35127;DHT22;21300;52.006;5.798;2023-06-04T02:39:19;15.50;65.40
35127;DHT22;21300;52.006;5.798;2023-06-04T02:41:45;15.50;65.50
35127;DHT22;21300;52.006;5.798;2023-06-04T02:44:10;15.50;65.60
35127;DHT22;21300;52.006;5.798;2023-06-04T02:46:36;15.40;65.50
35127;DHT22;21300;52.006;5.798;2023-06-04T02:49:02;15.40;65.50
35127;DHT22;21300;52.006;5.798;2023-06-04T02:51:28;15.40;65.60
35127;DHT22;21300;52.006;5.798;2023-06-04T02:53:54;15.40;65.70
35127;DHT22;21300;52.006;5.798;2023-06-04T02:56:20;15.40;65.70
35127;DHT22;21300;52.006;5.798;2023-06-04T02:58:52;15.30;65.60
35127;DHT22;21300;52.006;5.798;2023-06-04T03:01:26;15.30;65.70
35127;DHT22;21300;52.006;5.798;2023-06-04T03:03:52;15.30;65.70
35127;DHT22;21300;52.006;5.798;2023-06-04T03:06:19;15.20;65.70
35127;DHT22;21300;52.006;5.798;2023-06-04T03:08:50;15.20;65.70
35127;DHT22;21300;52.006;5.798;2023-06-04T03:11:16;15.20;65.70
35127;DHT22;21300;52.006;5.798;2023-06-04T03:13:41;15.20;65.70
35127;DHT22;21300;52.006;5.798;2023-06-04T03:16:07;15.20;65.80
35127;DHT22;21300;52.006;5.798;2023-06-04T03:18:36;15.20;65.80
35127;DHT22;21300;52.006;5.798;2023-06-04T03:21:06;15.20;65.80
35127;DHT22;21300;52.006;5.798;2023-06-04T03:23:32;15.10;65.90
35127;DHT22;21300;52.006;5.798;2023-06-04T03:25:58;15.10;65.80
35127;DHT22;21300;52.006;5.798;2023-06-04T03:28:24;15.10;65.90
35127;DHT22;21300;52.006;5.798;2023-06-04T03:30:50;15.10;65.90
35127;DHT22;21300;52.006;5.798;2023-06-04T03:33:15;15.10;65.90
35127;DHT22;21300;52.006;5.798;2023-06-04T03:35:41;15.00;65.80
35127;DHT22;21300;52.006;5.798;2023-06-04T03:38:06;15.00;65.80
35127;DHT22;21300;52.006;5.798;2023-06-04T03:40:32;15.00;65.90
35127;DHT22;21300;52.006;5.798;2023-06-04T03:42:58;15.00;65.90
35127;DHT22;21300;52.006;5.798;2023-06-04T03:45:23;14.90;65.90
35127;DHT22;21300;52.006;5.798;2023-06-04T03:47:49;14.90;65.90
35127;DHT22;21300;52.006;5.798;2023-06-04T03:50:15;14.90;66.00
35127;DHT22;21300;52.006;5.798;2023-06-04T03:52:40;14.90;66.00
35127;DHT22;21300;52.006;5.798;2023-06-04T03:55:06;14.90;66.10
35127;DHT22;21300;52.006;5.798;2023-06-04T03:57:32;14.90;66.00
35127;DHT22;21300;52.006;5.798;2023-06-04T03:59:58;14.90;66.00
35127;DHT22;21300;52.006;5.798;2023-06-04T04:02:23;14.80;66.00
35127;DHT22;21300;52.006;5.798;2023-06-04T04:04:49;14.80;66.10
35127;DHT22;21300;52.006;5.798;2023-06-04T04:07:15;14.80;66.10
35127;DHT22;21300;52.006;5.798;2023-06-04T04:09:41;14.80;66.90
35127;DHT22;21300;52.006;5.798;2023-06-04T04:12:07;14.60;65.10
35127;DHT22;21300;52.006;5.798;2023-06-04T04:14:32;14.30;65.10
35127;DHT22;21300;52.006;5.798;2023-06-04T04:16:58;14.20;65.40
35127;DHT22;21300;52.006;5.798;2023-06-04T04:19:23;14.10;65.50
35127;DHT22;21300;52.006;5.798;2023-06-04T04:21:49;13.90;65.40
35127;DHT22;21300;52.006;5.798;2023-06-04T04:24:24;13.90;65.60
35127;DHT22;21300;52.006;5.798;2023-06-04T04:26:51;13.80;65.70
35127;DHT22;21300;52.006;5.798;2023-06-04T04:29:20;13.80;65.80
35127;DHT22;21300;52.006;5.798;2023-06-04T04:31:50;13.70;65.80
35127;DHT22;21300;52.006;5.798;2023-06-04T04:34:16;13.70;65.70
35127;DHT22;21300;52.006;5.798;2023-06-04T04:36:45;13.60;65.90
35127;DHT22;21300;52.006;5.798;2023-06-04T04:39:22;13.60;66.30
35127;DHT22;21300;52.006;5.798;2023-06-04T04:41:47;13.60;66.90
35127;DHT22;21300;52.006;5.798;2023-06-04T04:44:13;13.50;66.40
35127;DHT22;21300;52.006;5.798;2023-06-04T04:46:39;13.60;66.40
35127;DHT22;21300;52.006;5.798;2023-06-04T04:49:04;13.60;67.00
35127;DHT22;21300;52.006;5.798;2023-06-04T04:51:30;13.60;66.90
35127;DHT22;21300;52.006;5.798;2023-06-04T04:53:56;13.60;67.10
35127;DHT22;21300;52.006;5.798;2023-06-04T04:56:21;13.70;67.10
35127;DHT22;21300;52.006;5.798;2023-06-04T04:58:48;13.80;67.20
35127;DHT22;21300;52.006;5.798;2023-06-04T05:01:14;13.80;67.20
35127;DHT22;21300;52.006;5.798;2023-06-04T05:03:39;13.80;67.10
35127;DHT22;21300;52.006;5.798;2023-06-04T05:06:05;13.90;67.10
35127;DHT22;21300;52.006;5.798;2023-06-04T05:08:30;14.00;67.30
35127;DHT22;21300;52.006;5.798;2023-06-04T05:10:56;14.00;67.50
35127;DHT22;21300;52.006;5.798;2023-06-04T05:13:22;14.20;67.30
35127;DHT22;21300;52.006;5.798;2023-06-04T05:15:48;14.30;66.70
35127;DHT22;21300;52.006;5.798;2023-06-04T05:18:14;14.40;67.10
35127;DHT22;21300;52.006;5.798;2023-06-04T05:20:41;14.30;67.70
35127;DHT22;21300;52.006;5.798;2023-06-04T05:23:08;14.30;67.80
35127;DHT22;21300;52.006;5.798;2023-06-04T05:25:34;14.40;67.80
35127;DHT22;21300;52.006;5.798;2023-06-04T05:28:00;14.50;67.90
35127;DHT22;21300;52.006;5.798;2023-06-04T05:30:25;14.50;67.80
35127;DHT22;21300;52.006;5.798;2023-06-04T05:32:51;14.70;67.80
35127;DHT22;21300;52.006;5.798;2023-06-04T05:35:19;14.80;67.30
35127;DHT22;21300;52.006;5.798;2023-06-04T05:37:44;14.80;67.60
35127;DHT22;21300;52.006;5.798;2023-06-04T05:40:11;14.80;68.60
35127;DHT22;21300;52.006;5.798;2023-06-04T05:42:37;14.90;67.90
35127;DHT22;21300;52.006;5.798;2023-06-04T05:45:05;15.00;67.60
35127;DHT22;21300;52.006;5.798;2023-06-04T05:47:30;15.00;67.10
35127;DHT22;21300;52.006;5.798;2023-06-04T05:49:57;15.10;67.10
35127;DHT22;21300;52.006;5.798;2023-06-04T05:52:23;15.20;66.80
35127;DHT22;21300;52.006;5.798;2023-06-04T05:54:48;15.30;66.60
35127;DHT22;21300;52.006;5.798;2023-06-04T05:57:14;15.50;66.40
35127;DHT22;21300;52.006;5.798;2023-06-04T05:59:40;15.50;66.00
35127;DHT22;21300;52.006;5.798;2023-06-04T06:02:05;15.60;65.80
35127;DHT22;21300;52.006;5.798;2023-06-04T06:04:31;15.60;65.80
35127;DHT22;21300;52.006;5.798;2023-06-04T06:06:57;15.60;66.80
35127;DHT22;21300;52.006;5.798;2023-06-04T06:09:22;15.60;66.10
35127;DHT22;21300;52.006;5.798;2023-06-04T06:11:48;15.70;65.80
35127;DHT22;21300;52.006;5.798;2023-06-04T06:14:14;15.70;65.50
35127;DHT22;21300;52.006;5.798;2023-06-04T06:16:40;15.80;65.60
35127;DHT22;21300;52.006;5.798;2023-06-04T06:19:06;15.70;65.00
35127;DHT22;21300;52.006;5.798;2023-06-04T06:21:31;15.80;66.10
35127;DHT22;21300;52.006;5.798;2023-06-04T06:23:57;15.90;65.40
35127;DHT22;21300;52.006;5.798;2023-06-04T06:26:22;15.90;65.90
35127;DHT22;21300;52.006;5.798;2023-06-04T06:28:49;16.10;65.80
35127;DHT22;21300;52.006;5.798;2023-06-04T06:31:15;16.10;65.30
35127;DHT22;21300;52.006;5.798;2023-06-04T06:33:40;16.20;65.00
35127;DHT22;21300;52.006;5.798;2023-06-04T06:36:25;16.30;64.80
35127;DHT22;21300;52.006;5.798;2023-06-04T06:38:51;16.30;64.60
35127;DHT22;21300;52.006;5.798;2023-06-04T06:41:17;16.40;64.30
35127;DHT22;21300;52.006;5.798;2023-06-04T06:43:43;16.50;64.20
35127;DHT22;21300;52.006;5.798;2023-06-04T06:46:08;16.40;64.00
35127;DHT22;21300;52.006;5.798;2023-06-04T06:48:34;16.50;63.80
35127;DHT22;21300;52.006;5.798;2023-06-04T06:51:00;16.60;63.70
35127;DHT22;21300;52.006;5.798;2023-06-04T06:53:25;16.60;63.50
35127;DHT22;21300;52.006;5.798;2023-06-04T06:55:51;16.60;63.30
35127;DHT22;21300;52.006;5.798;2023-06-04T06:58:18;16.70;63.20
35127;DHT22;21300;52.006;5.798;2023-06-04T07:00:43;16.70;63.20
35127;DHT22;21300;52.006;5.798;2023-06-04T07:03:09;16.70;62.80
35127;DHT22;21300;52.006;5.798;2023-06-04T07:05:34;16.80;62.90
35127;DHT22;21300;52.006;5.798;2023-06-04T07:08:00;16.80;62.70
35127;DHT22;21300;52.006;5.798;2023-06-04T07:10:27;16.90;62.70
35127;DHT22;21300;52.006;5.798;2023-06-04T07:12:52;16.90;62.60
35127;DHT22;21300;52.006;5.798;2023-06-04T07:15:18;16.90;62.20
35127;DHT22;21300;52.006;5.798;2023-06-04T07:17:44;17.00;62.00
35127;DHT22;21300;52.006;5.798;2023-06-04T07:20:10;17.00;62.20
35127;DHT22;21300;52.006;5.798;2023-06-04T07:22:35;17.10;62.00
35127;DHT22;21300;52.006;5.798;2023-06-04T07:25:01;17.10;61.90
35127;DHT22;21300;52.006;5.798;2023-06-04T07:27:27;17.10;61.80
35127;DHT22;21300;52.006;5.798;2023-06-04T07:29:53;17.10;61.70
35127;DHT22;21300;52.006;5.798;2023-06-04T07:32:18;17.20;61.50
35127;DHT22;21300;52.006;5.798;2023-06-04T07:34:44;17.20;61.60
35127;DHT22;21300;52.006;5.798;2023-06-04T07:37:10;17.20;61.30
35127;DHT22;21300;52.006;5.798;2023-06-04T07:39:36;17.30;61.60
35127;DHT22;21300;52.006;5.798;2023-06-04T07:42:02;17.30;61.40
35127;DHT22;21300;52.006;5.798;2023-06-04T07:44:27;17.30;61.20
35127;DHT22;21300;52.006;5.798;2023-06-04T07:46:53;17.30;61.40
35127;DHT22;21300;52.006;5.798;2023-06-04T07:49:18;17.40;61.30
35127;DHT22;21300;52.006;5.798;2023-06-04T07:51:44;17.40;61.30
35127;DHT22;21300;52.006;5.798;2023-06-04T07:54:10;17.40;60.90
35127;DHT22;21300;52.006;5.798;2023-06-04T07:56:35;17.50;60.70
35127;DHT22;21300;52.006;5.798;2023-06-04T07:59:01;17.50;60.60
35127;DHT22;21300;52.006;5.798;2023-06-04T08:01:27;17.60;60.40
35127;DHT22;21300;52.006;5.798;2023-06-04T08:03:52;17.60;60.30
35127;DHT22;21300;52.006;5.798;2023-06-04T08:06:18;17.60;60.40
35127;DHT22;21300;52.006;5.798;2023-06-04T08:08:45;17.60;60.40
35127;DHT22;21300;52.006;5.798;2023-06-04T08:11:14;17.60;60.50
35127;DHT22;21300;52.006;5.798;2023-06-04T08:13:40;17.70;60.30
35127;DHT22;21300;52.006;5.798;2023-06-04T08:16:06;17.70;60.20
35127;DHT22;21300;52.006;5.798;2023-06-04T08:18:32;17.80;60.20
35127;DHT22;21300;52.006;5.798;2023-06-04T08:20:58;17.80;60.00
35127;DHT22;21300;52.006;5.798;2023-06-04T08:23:23;17.80;60.10
35127;DHT22;21300;52.006;5.798;2023-06-04T08:25:49;17.80;60.10
35127;DHT22;21300;52.006;5.798;2023-06-04T08:28:15;17.80;60.00
35127;DHT22;21300;52.006;5.798;2023-06-04T08:30:42;17.90;59.80
35127;DHT22;21300;52.006;5.798;2023-06-04T08:33:07;17.90;59.80
35127;DHT22;21300;52.006;5.798;2023-06-04T08:35:33;17.90;59.70
35127;DHT22;21300;52.006;5.798;2023-06-04T08:37:59;18.00;59.70
35127;DHT22;21300;52.006;5.798;2023-06-04T08:40:25;18.00;59.60
35127;DHT22;21300;52.006;5.798;2023-06-04T08:42:51;18.00;59.50
35127;DHT22;21300;52.006;5.798;2023-06-04T08:45:23;18.00;59.60
35127;DHT22;21300;52.006;5.798;2023-06-04T08:47:50;18.10;59.60
35127;DHT22;21300;52.006;5.798;2023-06-04T08:50:21;18.10;59.50
35127;DHT22;21300;52.006;5.798;2023-06-04T08:52:52;18.10;59.60
35127;DHT22;21300;52.006;5.798;2023-06-04T08:55:18;18.20;59.80
35127;DHT22;21300;52.006;5.798;2023-06-04T08:57:44;18.20;59.90
35127;DHT22;21300;52.006;5.798;2023-06-04T09:00:10;18.20;59.90
35127;DHT22;21300;52.006;5.798;2023-06-04T09:02:38;18.20;59.80
35127;DHT22;21300;52.006;5.798;2023-06-04T09:05:05;18.30;60.10
35127;DHT22;21300;52.006;5.798;2023-06-04T09:07:35;18.30;60.00
35127;DHT22;21300;52.006;5.798;2023-06-04T09:10:01;18.40;60.20
35127;DHT22;21300;52.006;5.798;2023-06-04T09:12:27;18.40;60.00
35127;DHT22;21300;52.006;5.798;2023-06-04T09:14:54;18.40;60.10
35127;DHT22;21300;52.006;5.798;2023-06-04T09:17:23;18.50;59.80
35127;DHT22;21300;52.006;5.798;2023-06-04T09:19:51;18.50;60.00
35127;DHT22;21300;52.006;5.798;2023-06-04T09:22:17;18.50;61.00
35127;DHT22;21300;52.006;5.798;2023-06-04T09:24:47;18.50;60.30
35127;DHT22;21300;52.006;5.798;2023-06-04T09:27:17;18.60;60.50
35127;DHT22;21300;52.006;5.798;2023-06-04T09:29:53;18.60;60.50
35127;DHT22;21300;52.006;5.798;2023-06-04T09:32:25;18.70;60.60
35127;DHT22;21300;52.006;5.798;2023-06-04T09:34:56;18.70;60.70
35127;DHT22;21300;52.006;5.798;2023-06-04T09:37:23;18.70;60.60
35127;DHT22;21300;52.006;5.798;2023-06-04T09:39:57;18.80;60.30
35127;DHT22;21300;52.006;5.798;2023-06-04T09:42:23;18.80;60.60
35127;DHT22;21300;52.006;5.798;2023-06-04T09:44:49;18.80;60.30
35127;DHT22;21300;52.006;5.798;2023-06-04T09:47:15;18.90;60.60
35127;DHT22;21300;52.006;5.798;2023-06-04T09:49:42;18.90;60.40
35127;DHT22;21300;52.006;5.798;2023-06-04T09:52:08;19.00;60.90
35127;DHT22;21300;52.006;5.798;2023-06-04T09:54:36;19.00;60.80
35127;DHT22;21300;52.006;5.798;2023-06-04T09:57:02;19.00;60.40
35127;DHT22;21300;52.006;5.798;2023-06-04T09:59:32;19.10;60.70
35127;DHT22;21300;52.006;5.798;2023-06-04T10:01:59;19.10;61.50
35127;DHT22;21300;52.006;5.798;2023-06-04T10:04:26;19.20;61.10
35127;DHT22;21300;52.006;5.798;2023-06-04T10:06:53;19.20;61.00
35127;DHT22;21300;52.006;5.798;2023-06-04T10:09:20;19.20;61.00
35127;DHT22;21300;52.006;5.798;2023-06-04T10:11:58;19.30;61.20
35127;DHT22;21300;52.006;5.798;2023-06-04T10:14:34;19.30;62.00
35127;DHT22;21300;52.006;5.798;2023-06-04T10:17:01;19.30;60.90
35127;DHT22;21300;52.006;5.798;2023-06-04T10:19:29;19.40;61.10
35127;DHT22;21300;52.006;5.798;2023-06-04T10:21:56;19.40;61.30
35127;DHT22;21300;52.006;5.798;2023-06-04T10:24:21;19.50;61.20
35127;DHT22;21300;52.006;5.798;2023-06-04T10:26:49;19.50;61.10
35127;DHT22;21300;52.006;5.798;2023-06-04T10:29:17;19.50;60.60
35127;DHT22;21300;52.006;5.798;2023-06-04T10:31:43;19.60;60.60
35127;DHT22;21300;52.006;5.798;2023-06-04T10:34:11;19.60;61.10
35127;DHT22;21300;52.006;5.798;2023-06-04T10:36:44;19.70;59.70
35127;DHT22;21300;52.006;5.798;2023-06-04T10:39:10;19.70;59.40
35127;DHT22;21300;52.006;5.798;2023-06-04T10:41:37;19.70;59.20
35127;DHT22;21300;52.006;5.798;2023-06-04T10:44:02;19.80;59.30
35127;DHT22;21300;52.006;5.798;2023-06-04T10:46:41;19.90;60.50
35127;DHT22;21300;52.006;5.798;2023-06-04T10:49:09;19.90;58.70
35127;DHT22;21300;52.006;5.798;2023-06-04T10:51:35;19.90;59.00
35127;DHT22;21300;52.006;5.798;2023-06-04T10:54:04;20.00;60.10
35127;DHT22;21300;52.006;5.798;2023-06-04T10:56:34;20.00;59.90
35127;DHT22;21300;52.006;5.798;2023-06-04T10:59:12;20.00;59.10
35127;DHT22;21300;52.006;5.798;2023-06-04T11:01:38;20.10;60.10
35127;DHT22;21300;52.006;5.798;2023-06-04T11:04:03;20.10;60.00
35127;DHT22;21300;52.006;5.798;2023-06-04T11:06:29;20.20;59.30
35127;DHT22;21300;52.006;5.798;2023-06-04T11:09:05;20.20;58.50
35127;DHT22;21300;52.006;5.798;2023-06-04T11:11:31;20.20;58.00
35127;DHT22;21300;52.006;5.798;2023-06-04T11:14:07;20.30;58.40
35127;DHT22;21300;52.006;5.798;2023-06-04T11:16:33;20.30;58.70
35127;DHT22;21300;52.006;5.798;2023-06-04T11:18:58;20.40;58.70
35127;DHT22;21300;52.006;5.798;2023-06-04T11:21:24;20.40;59.10
35127;DHT22;21300;52.006;5.798;2023-06-04T11:23:57;20.40;58.90
35127;DHT22;21300;52.006;5.798;2023-06-04T11:26:32;20.50;59.20
35127;DHT22;21300;52.006;5.798;2023-06-04T11:28:58;20.50;59.50
35127;DHT22;21300;52.006;5.798;2023-06-04T11:31:24;20.60;58.80
35127;DHT22;21300;52.006;5.798;2023-06-04T11:33:51;20.60;58.90
35127;DHT22;21300;52.006;5.798;2023-06-04T11:36:29;20.60;58.70
35127;DHT22;21300;52.006;5.798;2023-06-04T11:39:03;20.70;59.00
35127;DHT22;21300;52.006;5.798;2023-06-04T11:41:35;20.70;58.20
35127;DHT22;21300;52.006;5.798;2023-06-04T11:44:04;20.70;58.70
35127;DHT22;21300;52.006;5.798;2023-06-04T11:46:32;20.80;59.70
35127;DHT22;21300;52.006;5.798;2023-06-04T11:48:58;20.80;59.30
35127;DHT22;21300;52.006;5.798;2023-06-04T11:51:24;20.90;58.30
35127;DHT22;21300;52.006;5.798;2023-06-04T11:53:50;20.90;57.10
35127;DHT22;21300;52.006;5.798;2023-06-04T11:56:16;20.90;58.50
35127;DHT22;21300;52.006;5.798;2023-06-04T11:58:42;20.90;58.20
35127;DHT22;21300;52.006;5.798;2023-06-04T12:01:08;21.00;58.70
35127;DHT22;21300;52.006;5.798;2023-06-04T12:03:36;21.00;57.90
35127;DHT22;21300;52.006;5.798;2023-06-04T12:06:17;21.00;58.80
35127;DHT22;21300;52.006;5.798;2023-06-04T12:08:53;21.10;57.80
35127;DHT22;21300;52.006;5.798;2023-06-04T12:13:58;21.10;59.30
35127;DHT22;21300;52.006;5.798;2023-06-04T12:16:24;21.20;58.70
35127;DHT22;21300;52.006;5.798;2023-06-04T12:18:50;21.20;57.70
35127;DHT22;21300;52.006;5.798;2023-06-04T12:21:25;21.20;57.80
35127;DHT22;21300;52.006;5.798;2023-06-04T12:26:34;21.30;57.30
35127;DHT22;21300;52.006;5.798;2023-06-04T12:29:09;21.30;57.80
35127;DHT22;21300;52.006;5.798;2023-06-04T12:31:36;21.30;58.10
35127;DHT22;21300;52.006;5.798;2023-06-04T12:34:01;21.40;58.70
35127;DHT22;21300;52.006;5.798;2023-06-04T12:36:27;21.40;57.30
35127;DHT22;21300;52.006;5.798;2023-06-04T12:39:00;21.40;57.70
35127;DHT22;21300;52.006;5.798;2023-06-04T12:41:27;21.50;57.80
35127;DHT22;21300;52.006;5.798;2023-06-04T12:43:53;21.50;57.70
35127;DHT22;21300;52.006;5.798;2023-06-04T12:46:19;21.50;57.30
35127;DHT22;21300;52.006;5.798;2023-06-04T12:48:45;21.50;57.40
35127;DHT22;21300;52.006;5.798;2023-06-04T12:51:11;21.50;57.00
35127;DHT22;21300;52.006;5.798;2023-06-04T12:53:41;21.50;57.30
35127;DHT22;21300;52.006;5.798;2023-06-04T12:56:07;21.60;57.10
35127;DHT22;21300;52.006;5.798;2023-06-04T12:58:32;21.60;56.40
35127;DHT22;21300;52.006;5.798;2023-06-04T13:00:58;21.60;57.40
35127;DHT22;21300;52.006;5.798;2023-06-04T13:03:25;21.60;58.10
35127;DHT22;21300;52.006;5.798;2023-06-04T13:05:51;21.70;58.40
35127;DHT22;21300;52.006;5.798;2023-06-04T13:08:19;21.70;58.10
35127;DHT22;21300;52.006;5.798;2023-06-04T13:10:46;21.70;58.50
35127;DHT22;21300;52.006;5.798;2023-06-04T13:13:11;21.70;57.90
35127;DHT22;21300;52.006;5.798;2023-06-04T13:15:37;21.70;58.10
35127;DHT22;21300;52.006;5.798;2023-06-04T13:18:03;21.80;59.10
35127;DHT22;21300;52.006;5.798;2023-06-04T13:20:28;21.80;57.70
35127;DHT22;21300;52.006;5.798;2023-06-04T13:22:54;21.80;57.30
35127;DHT22;21300;52.006;5.798;2023-06-04T13:25:19;21.80;57.80
35127;DHT22;21300;52.006;5.798;2023-06-04T13:27:45;21.80;57.60
35127;DHT22;21300;52.006;5.798;2023-06-04T13:30:11;21.90;57.00
35127;DHT22;21300;52.006;5.798;2023-06-04T13:32:37;21.90;57.50
35127;DHT22;21300;52.006;5.798;2023-06-04T13:35:03;21.90;57.40
35127;DHT22;21300;52.006;5.798;2023-06-04T13:37:28;21.90;56.90
35127;DHT22;21300;52.006;5.798;2023-06-04T13:39:54;21.90;56.60
35127;DHT22;21300;52.006;5.798;2023-06-04T13:42:19;21.90;57.40
35127;DHT22;21300;52.006;5.798;2023-06-04T13:44:45;22.00;57.70
35127;DHT22;21300;52.006;5.798;2023-06-04T13:47:10;22.00;57.80
35127;DHT22;21300;52.006;5.798;2023-06-04T13:49:36;22.00;58.60
35127;DHT22;21300;52.006;5.798;2023-06-04T13:52:02;22.00;58.50
35127;DHT22;21300;52.006;5.798;2023-06-04T13:54:27;22.00;58.00
35127;DHT22;21300;52.006;5.798;2023-06-04T13:56:53;22.00;58.00
35127;DHT22;21300;52.006;5.798;2023-06-04T13:59:18;22.00;58.10
35127;DHT22;21300;52.006;5.798;2023-06-04T14:01:44;22.10;58.40
35127;DHT22;21300;52.006;5.798;2023-06-04T14:04:10;22.10;58.10
35127;DHT22;21300;52.006;5.798;2023-06-04T14:06:37;22.10;58.00
35127;DHT22;21300;52.006;5.798;2023-06-04T14:09:03;22.10;58.40
35127;DHT22;21300;52.006;5.798;2023-06-04T14:11:31;22.10;58.20
35127;DHT22;21300;52.006;5.798;2023-06-04T14:13:57;22.10;58.40
35127;DHT22;21300;52.006;5.798;2023-06-04T14:16:23;22.10;58.40
35127;DHT22;21300;52.006;5.798;2023-06-04T14:18:49;22.10;58.70
35127;DHT22;21300;52.006;5.798;2023-06-04T14:21:14;22.20;58.60
35127;DHT22;21300;52.006;5.798;2023-06-04T14:23:40;22.20;58.60
35127;DHT22;21300;52.006;5.798;2023-06-04T14:26:06;22.20;58.60
35127;DHT22;21300;52.006;5.798;2023-06-04T14:28:32;22.20;58.60
35127;DHT22;21300;52.006;5.798;2023-06-04T14:30:57;22.20;58.70
35127;DHT22;21300;52.006;5.798;2023-06-04T14:33:24;22.20;58.80
35127;DHT22;21300;52.006;5.798;2023-06-04T14:35:50;22.20;58.90
35127;DHT22;21300;52.006;5.798;2023-06-04T14:38:17;22.20;58.90
35127;DHT22;21300;52.006;5.798;2023-06-04T14:40:42;22.30;58.80
35127;DHT22;21300;52.006;5.798;2023-06-04T14:43:12;22.30;58.80
35127;DHT22;21300;52.006;5.798;2023-06-04T14:45:37;22.30;58.80
35127;DHT22;21300;52.006;5.798;2023-06-04T14:48:06;22.30;58.70
35127;DHT22;21300;52.006;5.798;2023-06-04T14:50:32;22.30;58.70
35127;DHT22;21300;52.006;5.798;2023-06-04T14:52:58;22.30;58.70
35127;DHT22;21300;52.006;5.798;2023-06-04T14:55:24;22.30;58.50
35127;DHT22;21300;52.006;5.798;2023-06-04T14:57:50;22.30;58.60
35127;DHT22;21300;52.006;5.798;2023-06-04T15:00:16;22.30;58.50
35127;DHT22;21300;52.006;5.798;2023-06-04T15:02:42;22.30;58.50
35127;DHT22;21300;52.006;5.798;2023-06-04T15:05:08;22.30;58.40
35127;DHT22;21300;52.006;5.798;2023-06-04T15:07:33;22.30;58.30
35127;DHT22;21300;52.006;5.798;2023-06-04T15:09:59;22.40;58.20
35127;DHT22;21300;52.006;5.798;2023-06-04T15:12:27;22.40;58.10
35127;DHT22;21300;52.006;5.798;2023-06-04T15:14:53;22.40;58.10
35127;DHT22;21300;52.006;5.798;2023-06-04T15:17:19;22.40;58.10
35127;DHT22;21300;52.006;5.798;2023-06-04T15:19:44;22.40;58.00
35127;DHT22;21300;52.006;5.798;2023-06-04T15:22:10;22.40;58.00
35127;DHT22;21300;52.006;5.798;2023-06-04T15:24:35;22.40;58.00
35127;DHT22;21300;52.006;5.798;2023-06-04T15:27:01;22.40;57.70
35127;DHT22;21300;52.006;5.798;2023-06-04T15:29:30;22.40;54.40
35127;DHT22;21300;52.006;5.798;2023-06-04T15:31:56;22.40;52.50
35127;DHT22;21300;52.006;5.798;2023-06-04T15:34:21;22.40;52.10